F/V Berriz Patxiku — ECES — position and weather

sailwx.info

Track history (hours):
 
Tides and Currents Weather Stations Pressure Air Temp Water Temp Dewpoint Dewpoint Depression Visibility Wind Speed Wind Dir Waves Ship Positions

F/V Berriz Patxiku

Last reported at 2015-Jul-24 07:06 UTC. Time now 2015-Jul-29 20:03 UTC.
Position N 43°19' W 002°12'.

Length 30 m.

Type: Fishing. MMSI: 224106260.

Date/timePositionNaut miles runAvg speedWind from/ knotsBaromVisibWave heightAir tempDewpointWater temp
2015-Jul-24 07:06N 43°19' W 002°12'3 5.0
2015-Jul-24 06:33N 43°22' W 002°12'0 0.5
2015-Jul-24 05:33N 43°21' W 002°12'4 4.0
2015-Jul-24 04:33N 43°24' W 002°07'5 5.1
2015-Jul-24 03:33N 43°19' W 002°09'2 2.3
2015-Jul-24 02:27N 43°21' W 002°09'0 0.2
2015-Jul-24 01:31N 43°21' W 002°09'0 0.1
2015-Jul-24 00:31N 43°21' W 002°09'0 0.1
2015-Jul-23 23:31N 43°21' W 002°09'0 0.2
2015-Jul-23 22:14N 43°22' W 002°09'0 0.2
2015-Jul-23 21:33N 43°22' W 002°09'2 1.0
2015-Jul-23 19:23N 43°20' W 002°10'  
Track history (hours):
 
Tides and Currents Weather Stations Pressure Air Temp Water Temp Dewpoint Dewpoint Depression Visibility Wind Speed Wind Dir Waves Ship Positions

F/V Berriz Patxiku

Last reported at 2015-Jul-24 07:06 UTC. Time now 2015-Jul-29 20:03 UTC.
Position N 43°19' W 002°12'.

Length 30 m.

Type: Fishing. MMSI: 224106260.

Date/timePositionNaut miles runAvg speedWind from/ knotsBaromVisibWave heightAir tempDewpointWater temp
2015-Jul-24 07:06N 43°19' W 002°12'3 5.0
2015-Jul-24 06:33N 43°22' W 002°12'0 0.5
2015-Jul-24 05:33N 43°21' W 002°12'4 4.0
2015-Jul-24 04:33N 43°24' W 002°07'5 5.1
2015-Jul-24 03:33N 43°19' W 002°09'2 2.3
2015-Jul-24 02:27N 43°21' W 002°09'0 0.2
2015-Jul-24 01:31N 43°21' W 002°09'0 0.1
2015-Jul-24 00:31N 43°21' W 002°09'0 0.1
2015-Jul-23 23:31N 43°21' W 002°09'0 0.2
2015-Jul-23 22:14N 43°22' W 002°09'0 0.2
2015-Jul-23 21:33N 43°22' W 002°09'2 1.0
2015-Jul-23 19:23N 43°20' W 002°10'  

Dump ship's entire track history